Ankeny, IA

10:41 AM CST on November 21, 2019 (GMT -0600)
Ankeny Regional

Weather History for KIKV - September, 2019

Change the Weather History Date:

Saturday, September 28, 2019

  Actual Average (KDSM) Record (KDSM)
Temperature  
Mean Temperature 60 °F -  
Max Temperature 71 °F 71 °F 99 °F (1953)
Min Temperature 50 °F 49 °F 26 °F (1942)
Degree Days  
Heating Degree Days 4    
Growing Degree Days 10 (Base 50)    
Moisture  
Dew Point 54 °F    
Average Humidity 82    
Maximum Humidity 100    
Minimum Humidity 60    
Precipitation  
Precipitation 0.05 in - - ()
Sea Level Pressure  
Sea Level Pressure 30.04 in    
Wind  
Wind Speed 9 mph ()    
Max Wind Speed 17 mph    
Max Gust Speed 22 mph    
Visibility 9.7 miles    
Events Rain    
Averages and records for this station are not official NWS values.
T = Trace of Precipitation, MM = Missing Value Source: Averaged Metar Reports

Daily Weather History Graph

Daily Weather History Graph

Search for Another Location

Airport or City:

Astronomy

Sep. 28, 2019 Rise Set
Actual Time 7:07 AM CDT 7:01 PM CDT
Civil Twilight 6:40 AM CDT 7:29 PM CDT
Nautical Twilight 6:07 AM CDT 8:01 PM CDT
Astronomical Twilight 5:34 AM CDT 8:34 PM CDT
Moon 6:43 AM CDT (9/28) 7:28 PM CDT (9/28)
Length of Visible Light 12h 49m
Length of Day
11h 53m
Waning Crescent, 0% of the Moon is Illuminated
Sep 28
Waning Crescent
Sep 28
New
Oct 5
First Quarter
Oct 13
Full
Oct 21
Last Quarter

Hourly Weather History & Observations

Time (CDT) Temp. Dew Point Humidity Pressure Visibility Wind Dir Wind Speed Gust Speed Precip Events Conditions
12:15 AM 59.0 °F 51.8 °F 77% 29.90 in 10.0 mi NNE 11.5 mph - N/A   Overcast
12:35 AM 57.2 °F 51.8 °F 82% 29.91 in 10.0 mi North 12.7 mph 18.4 mph N/A   Mostly Cloudy
12:55 AM 57.2 °F 51.8 °F 82% 29.92 in 10.0 mi North 11.5 mph 19.6 mph N/A   Clear
1:15 AM 57.2 °F 51.8 °F 82% 29.91 in 10.0 mi North 11.5 mph - N/A   Clear
1:35 AM 55.4 °F 51.8 °F 88% 29.93 in 10.0 mi North 12.7 mph - N/A   Clear
1:55 AM 55.4 °F 50.0 °F 82% 29.96 in 10.0 mi North 8.1 mph 13.8 mph N/A   Clear
2:15 AM 55.4 °F 50.0 °F 82% 29.98 in 10.0 mi North 10.4 mph 19.6 mph N/A   Partly Cloudy
2:35 AM 55.4 °F 50.0 °F 82% 29.99 in 10.0 mi North 6.9 mph 13.8 mph N/A   Mostly Cloudy
2:55 AM 55.4 °F 50.0 °F 82% 30.00 in 10.0 mi NNW 9.2 mph 15.0 mph N/A   Overcast
3:35 AM 53.6 °F 50.0 °F 88% 30.00 in 10.0 mi NNW 9.2 mph 15.0 mph N/A   Overcast
3:55 AM 53.6 °F 48.2 °F 82% 29.99 in 10.0 mi North 6.9 mph 13.8 mph N/A   Scattered Clouds
4:15 AM 53.6 °F 48.2 °F 82% 29.99 in 10.0 mi North 11.5 mph - N/A   Unknown
4:35 AM 53.6 °F 48.2 °F 82% 29.98 in 10.0 mi North 9.2 mph 18.4 mph N/A   Clear
4:55 AM 51.8 °F 48.2 °F 88% 29.99 in 10.0 mi NNE 8.1 mph - N/A   Clear
5:15 AM 51.8 °F 48.2 °F 88% 29.99 in 10.0 mi North 8.1 mph - N/A   Clear
5:35 AM 51.8 °F 48.2 °F 88% 30.00 in 10.0 mi NNE 9.2 mph - N/A   Clear
5:55 AM 50.0 °F 48.2 °F 94% 30.00 in 10.0 mi North 9.2 mph - N/A   Clear
6:15 AM 51.8 °F 48.2 °F 88% 30.01 in 10.0 mi North 9.2 mph 15.0 mph N/A   Clear
6:35 AM 51.8 °F 48.2 °F 88% 30.01 in 10.0 mi NNE 8.1 mph 15.0 mph N/A   Clear
6:55 AM 51.8 °F 48.2 °F 88% 30.01 in 10.0 mi NNE 10.4 mph - N/A   Clear
7:15 AM 51.8 °F 48.2 °F 88% 30.03 in 10.0 mi NNE 9.2 mph 15.0 mph N/A   Clear
7:35 AM 51.8 °F 50.0 °F 94% 30.04 in 10.0 mi NNE 6.9 mph - N/A   Clear
7:55 AM 51.8 °F 50.0 °F 94% 30.06 in 10.0 mi North 5.8 mph - N/A   Clear
8:15 AM 53.6 °F 50.0 °F 88% 30.07 in 8.0 mi NNE 4.6 mph - N/A   Clear
8:35 AM 55.4 °F 51.8 °F 88% 30.07 in 10.0 mi NNE 5.8 mph - N/A   Mostly Cloudy
8:55 AM 55.4 °F 51.8 °F 88% 30.07 in 9.0 mi NNE 8.1 mph - N/A   Scattered Clouds
9:15 AM 57.2 °F 51.8 °F 82% 30.07 in 10.0 mi North 8.1 mph 16.1 mph N/A   Clear
9:35 AM 57.2 °F 51.8 °F 82% 30.07 in 10.0 mi NNE 10.4 mph - N/A   Clear
9:55 AM 60.8 °F 53.6 °F 77% 30.07 in 9.0 mi NE 11.5 mph - N/A   Clear
10:15 AM 60.8 °F 53.6 °F 77% 30.08 in 9.0 mi NE 9.2 mph 18.4 mph N/A   Clear
10:35 AM 62.6 °F 53.6 °F 72% 30.09 in 10.0 mi NE 11.5 mph - N/A   Clear
10:55 AM 64.4 °F 53.6 °F 68% 30.10 in 10.0 mi NE 10.4 mph 17.3 mph N/A   Clear
11:15 AM 64.4 °F 55.4 °F 73% 30.10 in 10.0 mi NNE 10.4 mph - N/A   Clear
11:35 AM 66.2 °F 55.4 °F 68% 30.10 in 10.0 mi NNE 8.1 mph - N/A   Clear
11:55 AM 66.2 °F 55.4 °F 68% 30.09 in 10.0 mi NE 9.2 mph - N/A   Clear
12:15 PM 68.0 °F 55.4 °F 64% 30.09 in 10.0 mi NE 11.5 mph - N/A   Clear
12:35 PM 68.0 °F 55.4 °F 64% 30.09 in 10.0 mi ENE 9.2 mph - N/A   Clear
12:55 PM 69.8 °F 57.2 °F 64% 30.09 in 10.0 mi ENE 10.4 mph - N/A   Clear
1:15 PM 69.8 °F 55.4 °F 60% 30.08 in 10.0 mi East 9.2 mph 16.1 mph N/A   Clear
1:35 PM 69.8 °F 57.2 °F 64% 30.08 in 10.0 mi ENE 11.5 mph - N/A   Partly Cloudy
1:55 PM 71.6 °F 57.2 °F 60% 30.07 in 10.0 mi East 8.1 mph 18.4 mph N/A   Scattered Clouds
2:15 PM 69.8 °F 57.2 °F 64% 30.07 in 10.0 mi ENE 13.8 mph - N/A   Mostly Cloudy
2:35 PM 69.8 °F 57.2 °F 64% 30.06 in 10.0 mi East 12.7 mph - N/A   Overcast
2:55 PM 69.8 °F 57.2 °F 64% 30.06 in 10.0 mi East 10.4 mph 18.4 mph N/A   Overcast
3:55 PM 68.0 °F 57.2 °F 68% 30.05 in 10.0 mi East 10.4 mph 18.4 mph N/A   Overcast
4:15 PM 68.0 °F 57.2 °F 68% 30.06 in 9.0 mi East 11.5 mph 18.4 mph N/A   Overcast
4:35 PM 68.0 °F 57.2 °F 68% 30.05 in 9.0 mi North - - N/A   Overcast
4:55 PM 66.2 °F 57.2 °F 73% 30.07 in 10.0 mi North - - N/A   Overcast
5:15 PM 66.2 °F 57.2 °F 73% 30.07 in 10.0 mi East 10.4 mph 17.3 mph N/A   Overcast
5:35 PM 64.4 °F 57.2 °F 77% 30.07 in 10.0 mi ENE 10.4 mph 20.7 mph N/A   Overcast
5:55 PM 64.4 °F 57.2 °F 77% 30.07 in 10.0 mi ENE 10.4 mph 17.3 mph N/A   Overcast
6:15 PM 62.6 °F 57.2 °F 82% 30.05 in 10.0 mi ENE 12.7 mph 18.4 mph N/A   Overcast
6:35 PM 62.6 °F 57.2 °F 82% 30.05 in 10.0 mi ENE 12.7 mph - N/A   Overcast
6:55 PM 60.8 °F 57.2 °F 88% 30.08 in 9.0 mi ENE 11.5 mph 19.6 mph N/A Rain Light Rain
7:15 PM 60.8 °F 57.2 °F 88% 30.09 in 10.0 mi East 11.5 mph 20.7 mph N/A   Overcast
7:35 PM 60.8 °F 57.2 °F 88% 30.07 in 10.0 mi ENE 17.3 mph - N/A   Overcast
7:55 PM 60.8 °F 57.2 °F 88% 30.08 in 10.0 mi East 10.4 mph 18.4 mph N/A   Overcast
8:15 PM 60.8 °F 59.0 °F 94% 30.10 in 10.0 mi Variable 6.9 mph 16.1 mph N/A   Overcast
8:35 PM 60.8 °F 59.0 °F 94% 30.10 in 9.0 mi East 8.1 mph 15.0 mph N/A   Overcast
8:55 PM 60.8 °F 59.0 °F 94% 30.10 in 10.0 mi East 10.4 mph 16.1 mph N/A   Overcast
9:15 PM 60.8 °F 59.0 °F 94% 30.11 in 10.0 mi East 9.2 mph 15.0 mph N/A   Overcast
9:35 PM 60.8 °F 59.0 °F 94% 30.10 in 7.0 mi East 11.5 mph 17.3 mph N/A Rain Light Rain
9:55 PM 60.8 °F 59.0 °F 94% 30.08 in 7.0 mi East 11.5 mph 18.4 mph 0.02 in Rain Light Rain
10:15 PM 60.8 °F 59.0 °F 94% 30.07 in 9.0 mi East 9.2 mph 16.1 mph N/A   Overcast
10:35 PM 60.8 °F 59.0 °F 94% 30.05 in 8.0 mi East 11.5 mph - N/A   Overcast
10:55 PM 60.8 °F 59.0 °F 94% 30.05 in 8.0 mi East 12.7 mph - 0.01 in   Overcast
11:15 PM 60.8 °F 59.0 °F 94% 30.05 in 8.0 mi East 9.2 mph 17.3 mph N/A   Overcast
11:35 PM 60.8 °F 59.0 °F 94% 30.05 in 10.0 mi ESE 13.8 mph 21.9 mph N/A   Overcast
11:55 PM 59.0 °F 59.0 °F 100% 30.07 in 10.0 mi ESE 8.1 mph 19.6 mph 0.02 in   Overcast